Winnipeg James Armstrong Richardson International Airport
CYWG : now visible

Airfield :











YOU CAN JOIN US ON...

 
LOGIN :

Register | Disclaimer

   EN    FR    IT 

 









Legend :    VFR   Marginal VFR   IFR   Intensive IFR   Very Intensive IFR
Visi :
Ceiling :
>= 8 km
>= 3000ft
5 to 8 km
1000 to 3000 ft
1500m to 5 km
500 to 1000 ft
800 to 1500m
200 to 500 ft
< 800m
< 200 ft
Symbols :   Thunderstorms  Fog  Heavy snow  Heavy precipitations  Wind > 20 kt






- Airport Elevation : 783 ft
- IATA code : YWG


CYWG - Winnipeg James Armstrong Richardson International

CURRENT METAR :
  • 170100Z 25016G28KT 15SM FEW090 FEW250 19/08 A2954 RMK AC1CI1 AC TR SLP006 DENSITY ALT 1900FT

EXPIRED METARs :
  • 170000Z 25021G37KT 15SM FEW250 20/08 A2951 RMK CI1 SLP997 DENSITY ALT 2100FT
  • 162300Z 25023G32KT 15SM FEW035 FEW074 FEW250 21/07 A2950 RMK CF1AC1CI1 CF TR AC TR SLP991 DENSITY ALT 2200FT
  • 162247Z 25025G31KT 15SM FEW030 FEW073 FEW250 22/06 A2949 WS RWY31 RMK CF1AC1CI1 CF TR AC TR SLP989 DENSITY ALT 2300FT
  • 162200Z 25021G37KT 15SM FEW035 FEW250 22/07 A2949 RMK CF1CI1 CF TR SLP988 DENSITY ALT 2300FT
  • 162100Z 24021G33KT 15SM FEW250 22/05 A2949 RMK CI1 SLP987 DENSITY ALT 2300FT

TAF TAF CYWG
Valid from the 17 at 00:00 until the 18 at 00:00 UTC


162340Z 1700/1724 25022G32KT P6SM FEW060
BECMG 1701/1703 24015G25KT
FM170700 26012KT P6SM SKC
FM171200 28008KT P6SM SKC
FM172200 32006KT P6SM SCT120 BKN240 RMK NXT FCST BY 170600Z
CZWG FIR / North America



MET'MAP, your aeronautical weather chart ! - Copyright ORBIFLY December 2007 - Disclaimer

ORBIFLY MET'MAP TEAM :

Programming & Development : Alexandra Zaïnal
Original concept : Baudouin d'Aumeries
Technical & hardware support : Manuel Goepfert
Assistance : Marc-Olivier Méhu




SOURCES & CREDITS :

   NOAA       Earth
Advisory